x

Cape Suckling - 35 Nm Se Of Kayak Is, Ak (46082) Wave Buoy

11:50pm - Mon 28th Jul 2014 All times are AKDT. -8 hours from GMT.

  • Sig Wave height 1.6ft
  • Peak Period 16s
  • Average Period 5s
  • Wind
    4mph
  • Sea Temp 59°f
  • Air Temp 58°f
  • Sea Pressure 1014.1mb
  • Cape Suckling - 35 Nm Se Of Kayak Is, Ak
  • Cape Suckling - 35 Nm Se Of Kayak Is, Ak

More Historic Weather Station data

Upgrade to MSW Pro to gain access to the past 30 days of data for over 8000 Wavebouys and Weather Stations around the globe.

Join Pro

Comparision Forecast

View Surf forecast
   
Mon 07/28 11:50pm 1.6ft 16s 5s 4
mph
1014.1mb 59f 58f
10:50pm 1.6ft 16s 5s 7
mph
1014.5mb 59f 57f
9:50pm 1.6ft 15s 5s 7 9 mph 1014.7mb 60f 58f
8:50pm 1.6ft 16s 6s 7
mph
1015mb 60f 59f
7:50pm 1.6ft 15s 5s 4
mph
1015.4mb 61f 59f
6:50pm 2ft 16s 5s 2 4 mph 1015.7mb 60f 59f
5:50pm 1.6ft 6s 5s 2 4 mph 1016.2mb 60f 58f
4:50pm 2ft 6s 4s  -  mph 1016.5mb 58f 59f
3:50pm 2ft 4s 4s  -  2 mph 1016.9mb 58f 58f
2:50pm 2ft 4s 4s 2
mph
1017.4mb 59f 57f
1:50pm 2.5ft 4s 4s 2 4 mph 1017.7mb 58f 56f
12:50pm 2.5ft 5s 4s 2 4 mph 1018mb 58f 56f
11:50am 2.5ft 5s 4s 2 4 mph 1018.4mb 57f 56f
10:50am 2.5ft 5s 4s 4 7 mph 1018.7mb 56f 56f
9:50am 3ft 5s 4s 7
mph
1018.5mb 56f 56f
8:50am 3ft 5s 4s 7 9 mph 1018.8mb 56f 56f
7:50am 3.5ft 6s 4s 9 11 mph 1018.8mb 56f 56f
6:50am 3.5ft 6s 4s 7 9 mph 1019mb 56f 57f
5:50am 3.5ft 6s 4s 7
mph
1019mb 56f 56f
4:50am 4ft 5s 4s 9 11 mph 1018.8mb 56f 56f
3:50am 4ft 6s 4s 11 13 mph 1018.8mb 56f 56f
2:50am 4.5ft 5s 4s 11 13 mph 1018.6mb 56f 56f
1:50am 5ft 6s 5s 11 16 mph 1018.8mb 56f 56f
12:50am 5ft 5s 5s 13 18 mph 1018.8mb 56f 57f
Sun 07/27 11:50pm 5ft 6s 4s 18 20 mph 1018.7mb 57f 57f
10:50pm 5ft 6s 4s 18 20 mph 1018.6mb 57f 57f
9:50pm 7ft 6s 5s 20 25 mph 1018.1mb 57f 57f
8:50pm 6ft 6s 4s 18 22 mph 1017.7mb 57f 57f
7:50pm 6.5ft 6s 5s 18 22 mph 1017.2mb 57f 57f
6:50pm 6.5ft 6s 5s 18 22 mph 1016.8mb 57f 57f
5:50pm 6.5ft 6s 5s 22 25 mph 1016.3mb 57f 57f
4:50pm 6ft 7s 5s 20 22 mph 1015.8mb 57f 57f
3:50pm 6ft 6s 5s 22 27 mph 1015.4mb 57f 56f
2:50pm 7ft 7s 5s 20 25 mph 1014.8mb 57f 57f
1:50pm 7ft 6s 5s 20 25 mph 1014.1mb 56f 56f
12:50pm 7.5ft 6s 5s 20 25 mph 1013.5mb 57f 57f
11:50am 6.5ft 6s 5s 25 29 mph 1012.9mb 57f 57f
10:50am 6.5ft 6s 5s 25 29 mph 1012.4mb 57f 56f
9:50am 6ft 6s 4s 20 25 mph 1012.2mb 57f 58f
8:50am 6ft 5s 4s 22 25 mph 1011.9mb 57f 58f
7:50am 6ft 6s 5s 22 27 mph 1011.5mb 57f 57f
6:50am 6ft 8s 5s 20 25 mph 1011.2mb 57f 57f
5:50am 6.5ft 7s 5s 18 20 mph 1011.1mb 57f 56f
4:50am 7ft 7s 5s 20 25 mph 1011mb 57f 56f
3:50am 7ft 8s 5s 20 25 mph 1010.8mb 57f 55f
2:50am 6.5ft 8s 5s 20 25 mph 1010.9mb 58f 56f
1:50am 6ft 8s 6s 16 20 mph 1010.8mb 57f 56f
12:50am 7ft 6s 5s 9 11 mph 1010.6mb 57f 57f
Sat 07/26 11:50pm 7ft 7s 5s 11 16 mph 1010.6mb 58f 56f
10:50pm 7ft 8s 5s 13 16 mph 1010.6mb 57f 56f
9:50pm 8.5ft 8s 5s 27 31 mph 1010.1mb 58f 56f
8:50pm 8ft 7s 5s 29 36 mph 1009.8mb 58f 56f
7:50pm 8ft 7s 5s 31 36 mph 1009.8mb 58f 56f
6:50pm 8ft 7s 5s 29 34 mph 1010.3mb 58f 56f
5:50pm 7.5ft 6s 5s 27 31 mph 1010.6mb 58f 56f
4:50pm 6ft 6s 5s 25 29 mph 1010.9mb 58f 56f
3:50pm 6.5ft 6s 5s 25 31 mph 1011mb 58f 56f
2:50pm 5ft 5s 5s 22 27 mph 1011.3mb 58f 55f
1:50pm 5ft 7s 5s 20 25 mph 1011.4mb 58f 55f
12:50pm 4.5ft 7s 5s 13
mph
1011.5mb 58f 56f
11:50am 4.5ft 8s 5s 18 22 mph 1011.6mb 58f 56f
10:50am 4.5ft 7s 5s 11 13 mph 1011.8mb 58f 57f
9:50am 3.5ft 8s 5s 13 16 mph 1011.8mb 57f 57f
8:50am 3.5ft 8s 5s 11 16 mph 1011.9mb 57f 57f
7:50am 4ft 8s 5s 11 13 mph 1011.9mb 57f 56f
6:50am 4ft 7s 5s 9 11 mph 1011.7mb 58f 56f
5:50am 4.5ft 8s 5s 9 11 mph 1011.6mb 58f 57f
4:50am 4ft 7s 5s 13
mph
1011.6mb 58f 56f
3:50am 4ft 7s 5s 7
mph
1011.7mb 58f 57f
2:50am 4.5ft 7s 5s 4 7 mph 1011.6mb 58f 57f
1:50am 5ft 6s 5s 7 9 mph 1011.7mb 58f 57f
12:50am 4.5ft 7s 5s 9 11 mph 1011.6mb 58f 57f
Fri 07/25 11:50pm 4.5ft 6s 5s 11 13 mph 1011.6mb 58f 57f
10:50pm 4ft 6s 5s 13 16 mph 1011.7mb 58f 57f
9:50pm 4.5ft 6s 5s 11 13 mph 1011.3mb 58f 57f
8:50pm 5ft 6s 5s 13 18 mph 1011mb 58f 57f
7:50pm 5ft 6s 4s 20 22 mph 1010.6mb 58f 56f
6:50pm 4.5ft 5s 5s 16 18 mph 1010.7mb 58f 58f
5:50pm 5ft 5s 4s 13 16 mph 1010.3mb 58f 56f
4:50pm 5ft 5s 4s 18 22 mph 1010.7mb 58f 56f
3:50pm 5ft 5s 4s 16 20 mph 1010.6mb 58f 56f
2:50pm 5ft 5s 4s 18 22 mph 1010.7mb 58f 56f
1:50pm 4.5ft 5s 4s 20 22 mph 1010.5mb 58f 56f
12:50pm 4.5ft 5s 4s 18 20 mph 1010.5mb 58f 56f
11:50am 3.5ft 4s 4s 18 20 mph 1010.6mb 58f 56f
10:50am 3ft 7s 4s 16 18 mph 1010.5mb 58f 56f
9:50am 3.5ft 8s 4s 13 16 mph 1010.2mb 58f 56f